Time;durP1;ratioP1;P1;durP2;ratioP2;P2;SDS_P1;SDS_P2;PMS_P1;PMS_P2;Temp;Humidity;BMP_temperature;BMP_pressure;BME280_temperature;BME280_humidity;BME280_pressure;Samples;Min_cycle;Max_cycle;Signal;HPM_P1;HPM_P2
2022/06/13 00:01:30;;;;;;;5.87;2.37;;;;;;;24.90;37.83;98721.03;4499043;31;20080;-81
2022/06/13 00:03:55;;;;;;;6.70;2.33;;;;;;;24.81;37.86;98718.56;4495584;31;20580;-81
2022/06/13 00:06:21;;;;;;;6.95;2.50;;;;;;;24.81;37.90;98721.25;4493253;31;20173;-80
2022/06/13 00:08:46;;;;;;;6.32;2.40;;;;;;;24.80;37.78;98723.13;4489108;31;20104;-81
2022/06/13 00:11:14;;;;;;;4.82;2.20;;;;;;;24.78;37.73;98725.12;4490624;31;20106;-81
2022/06/13 00:13:41;;;;;;;;;;;;;;;24.76;37.76;98719.06;4489513;31;20116;-81
2022/06/13 00:16:09;;;;;;;6.87;2.33;;;;;;;24.85;37.46;98718.03;4503486;31;20032;-80
2022/06/13 00:18:35;;;;;;;5.82;2.40;;;;;;;24.75;37.55;98722.78;4500566;31;20088;-80
2022/06/13 00:21:00;;;;;;;6.93;2.22;;;;;;;24.75;37.49;98709.31;4490275;31;20096;-80
2022/06/13 00:23:25;;;;;;;5.62;2.30;;;;;;;24.70;37.50;98717.91;4499144;31;20145;-80
2022/06/13 00:25:51;;;;;;;6.32;2.40;;;;;;;24.68;37.51;98714.56;4494857;31;20088;-80
2022/06/13 00:28:16;;;;;;;6.70;2.17;;;;;;;24.65;37.52;98712.25;4489047;31;20096;-81
2022/06/13 00:30:42;;;;;;;5.87;2.33;;;;;;;24.65;37.43;98714.94;4503467;31;20100;-80
2022/06/13 00:33:07;;;;;;;6.53;2.30;;;;;;;24.61;37.62;98704.66;4490140;31;20100;-80
2022/06/13 00:35:33;;;;;;;5.65;2.15;;;;;;;24.66;37.52;98716.59;4498143;31;20439;-81
2022/06/13 00:37:58;;;;;;;5.75;2.15;;;;;;;24.63;37.60;98703.50;4495591;31;20126;-81
2022/06/13 00:40:24;;;;;;;5.95;2.03;;;;;;;24.62;37.55;98701.81;4492616;31;20093;-80
2022/06/13 00:42:49;;;;;;;7.10;2.12;;;;;;;24.61;37.45;98699.28;4488458;31;20507;-80
2022/06/13 00:45:21;;;;;;;6.28;2.20;;;;;;;24.59;37.22;98701.31;4490798;31;20088;-80
2022/06/13 00:47:50;;;;;;;5.05;1.95;;;;;;;24.55;37.23;98692.78;4496637;31;20110;-79
2022/06/13 00:50:23;;;;;;;7.12;2.40;;;;;;;24.55;37.18;98689.22;4489004;31;20084;-79
2022/06/13 00:52:58;;;;;;;5.68;1.92;;;;;;;24.51;37.14;98688.72;4488923;31;20122;-80
2022/06/13 00:55:35;;;;;;;6.03;2.12;;;;;;;24.51;37.04;98686.91;4499174;31;20165;-80
2022/06/13 00:58:01;;;;;;;7.82;2.22;;;;;;;24.48;36.94;98681.81;4488993;31;20096;-80
2022/06/13 01:00:28;;;;;;;6.28;2.00;;;;;;;24.47;37.00;98680.16;4488770;31;20088;-80
2022/06/13 01:02:54;;;;;;;5.57;1.98;;;;;;;24.40;37.06;98678.34;4487854;31;20480;-80
2022/06/13 01:05:23;;;;;;;6.87;3.12;;;;;;;24.41;36.93;98677.31;4491272;31;20120;-80
2022/06/13 01:07:49;;;;;;;4.62;1.90;;;;;;;24.42;36.93;98674.44;4496261;31;20107;-81
2022/06/13 01:13:02;;;;;;;7.20;2.25;;;;;;;24.39;37.15;98673.94;4486477;31;137322;-81
2022/06/13 01:15:52;;;;;;;5.10;2.10;;;;;;;24.38;37.15;98669.56;4488670;31;20108;-81
2022/06/13 01:18:35;;;;;;;5.62;2.12;;;;;;;24.41;37.05;98661.97;4488793;31;20104;-81
2022/06/13 01:21:30;;;;;;;4.82;2.10;;;;;;;24.36;37.11;98667.06;4501262;31;20498;-80
2022/06/13 01:24:17;;;;;;;6.50;2.20;;;;;;;24.36;37.16;98664.38;4495082;31;20139;-80
2022/06/13 01:26:43;;;;;;;6.32;2.12;;;;;;;24.32;37.10;98660.37;4490274;31;20115;-79
2022/06/13 01:29:30;;;;;;;5.85;2.05;;;;;;;24.27;37.31;98663.56;4500197;31;20092;-80
2022/06/13 01:32:17;;;;;;;5.30;2.25;;;;;;;24.31;37.26;98658.66;4488553;31;20133;-80
2022/06/13 01:35:18;;;;;;;5.62;2.15;;;;;;;24.30;37.09;98654.31;4488698;31;20112;-80
2022/06/13 01:38:20;;;;;;;5.12;2.00;;;;;;;24.27;37.13;98652.78;4413720;32;20093;-80
2022/06/13 01:40:58;;;;;;;7.25;2.20;;;;;;;24.21;36.89;98653.50;4422859;32;20139;-80
2022/06/13 01:44:10;;;;;;;6.85;2.20;;;;;;;24.20;36.76;98651.81;4422926;32;20078;-79
2022/06/13 01:46:40;;;;;;;4.97;2.08;;;;;;;24.25;36.60;98649.44;4347612;33;20119;-80
2022/06/13 01:49:49;;;;;;;5.75;2.00;;;;;;;24.22;36.58;98659.72;4335241;33;20177;-80
2022/06/13 01:52:53;;;;;;;6.97;2.17;;;;;;;24.18;36.57;98651.13;4337816;33;20118;-80
2022/06/13 01:55:28;;;;;;;5.37;2.08;;;;;;;24.19;36.74;98652.00;4332124;33;20091;-79
2022/06/13 01:58:02;;;;;;;5.32;1.95;;;;;;;24.15;36.60;98648.81;4335398;33;20129;-81
2022/06/13 02:00:32;;;;;;;5.97;2.12;;;;;;;24.14;36.48;98642.59;4347810;33;20177;-81
2022/06/13 02:03:03;;;;;;;6.10;2.17;;;;;;;24.11;36.60;98647.50;4335729;33;20518;-81
2022/06/13 02:05:42;;;;;;;6.55;2.30;;;;;;;24.09;36.74;98641.44;4347742;33;20624;-81
2022/06/13 02:08:10;;;;;;;7.53;2.10;;;;;;;24.10;36.68;98637.72;4335387;33;20162;-81
2022/06/13 02:10:43;;;;;;;5.97;2.20;;;;;;;24.07;36.79;98633.53;4347710;33;20157;-81
2022/06/13 02:13:16;;;;;;;5.95;2.35;;;;;;;24.06;36.91;98642.59;4359484;32;20117;-80
2022/06/13 02:15:46;;;;;;;5.47;2.40;;;;;;;24.04;37.08;98636.56;4407518;32;20119;-80
2022/06/13 02:18:39;;;;;;;7.10;2.37;;;;;;;24.01;37.15;98638.75;4479936;31;20104;-81
2022/06/13 02:21:08;;;;;;;7.45;2.15;;;;;;;23.99;37.35;98633.56;4502680;31;20116;-81
2022/06/13 02:23:40;;;;;;;5.68;3.03;;;;;;;23.99;37.38;98638.97;4503150;31;20084;-80
2022/06/13 02:26:09;;;;;;;5.55;2.22;;;;;;;23.99;37.62;98635.41;4488963;31;20072;-80
2022/06/13 02:28:59;;;;;;;6.18;1.90;;;;;;;23.96;37.76;98641.97;4488976;31;20122;-81
2022/06/13 02:31:46;;;;;;;6.45;2.28;;;;;;;24.00;37.85;98645.16;4493377;31;20096;-80
2022/06/13 02:34:14;;;;;;;5.95;2.20;;;;;;;23.99;37.76;98638.09;4475370;31;20084;-80
2022/06/13 02:36:46;;;;;;;5.57;2.20;;;;;;;23.91;37.76;98641.66;4502984;31;20080;-80
2022/06/13 02:39:26;;;;;;;6.20;2.45;;;;;;;23.92;37.62;98633.41;4488679;31;20734;-80
2022/06/13 02:41:59;;;;;;;5.55;2.17;;;;;;;23.91;37.49;98636.28;4502916;31;20088;-81
2022/06/13 02:44:30;;;;;;;4.72;2.10;;;;;;;23.86;37.47;98623.34;4502825;31;20151;-81
2022/06/13 02:46:58;;;;;;;7.07;2.30;;;;;;;23.89;37.35;98628.41;4502834;31;20370;-81
2022/06/13 02:49:39;;;;;;;6.12;2.15;;;;;;;23.87;37.00;98629.56;4488422;31;20092;-81
2022/06/13 02:52:29;;;;;;;7.18;2.22;;;;;;;23.89;36.84;98631.09;4488483;31;20130;-81
2022/06/13 02:54:58;;;;;;;6.85;2.17;;;;;;;23.91;36.82;98631.75;4502805;31;20457;-81
2022/06/13 02:57:47;;;;;;;5.22;2.12;;;;;;;23.94;36.76;98626.00;4488342;31;20521;-81
2022/06/13 03:00:21;;;;;;;5.30;1.98;;;;;;;23.93;36.73;98626.16;4502872;31;20105;-81
2022/06/13 03:02:53;;;;;;;7.20;2.40;;;;;;;23.94;36.67;98635.94;4488468;31;20143;-81
2022/06/13 03:05:33;;;;;;;4.95;1.92;;;;;;;23.99;36.43;98628.19;4502631;31;20083;-81
2022/06/13 03:08:14;;;;;;;4.37;1.90;;;;;;;23.99;36.39;98633.56;4502694;31;20382;-81
2022/06/13 03:10:48;;;;;;;5.22;1.85;;;;;;;24.07;36.34;98616.56;4502806;31;20343;-80
2022/06/13 03:13:27;;;;;;;4.75;1.90;;;;;;;24.07;36.51;98620.09;4488819;31;20120;-81
2022/06/13 03:15:57;;;;;;;5.18;1.85;;;;;;;24.15;36.19;98621.91;4488429;31;20118;-81
2022/06/13 03:18:28;;;;;;;5.07;1.98;;;;;;;24.17;36.21;98624.44;4488546;31;20358;-80
2022/06/13 03:21:07;;;;;;;5.68;2.10;;;;;;;24.25;36.19;98617.12;4488504;31;20234;-81
2022/06/13 03:23:39;;;;;;;5.80;2.22;;;;;;;24.31;36.19;98620.97;4487677;31;20526;-81
2022/06/13 03:26:10;;;;;;;7.37;2.30;;;;;;;24.36;36.14;98612.38;4487762;31;20080;-81
2022/06/13 03:28:59;;;;;;;5.25;1.87;;;;;;;24.46;36.12;98619.22;4488351;31;20072;-81
2022/06/13 03:31:57;;;;;;;6.70;2.03;;;;;;;24.53;36.11;98620.22;4488159;31;20096;-81
2022/06/13 03:34:28;;;;;;;4.50;1.75;;;;;;;24.60;36.09;98620.34;4488079;31;20158;-81
2022/06/13 03:36:57;;;;;;;5.00;1.87;;;;;;;24.67;36.07;98620.50;4488200;31;20084;-81
2022/06/13 03:39:27;;;;;;;4.60;1.65;;;;;;;24.70;36.14;98615.56;4487893;31;20420;-81
2022/06/13 03:41:56;;;;;;;4.93;1.85;;;;;;;24.81;36.07;98616.19;4487909;31;20568;-81
2022/06/13 03:44:34;;;;;;;6.40;1.90;;;;;;;24.88;35.82;98607.19;4487947;31;20096;-81
2022/06/13 03:47:06;;;;;;;5.65;2.15;;;;;;;25.02;35.82;98613.66;4474682;31;20151;-80
2022/06/13 03:50:09;;;;;;;4.55;1.75;;;;;;;25.12;35.72;98610.72;4502104;31;20060;-81
2022/06/13 03:52:38;;;;;;;6.95;2.20;;;;;;;25.27;35.39;98603.53;4499434;31;20574;-80
2022/06/13 03:55:14;;;;;;;5.53;1.80;;;;;;;25.39;35.28;98606.63;4487714;31;20100;-81
2022/06/13 03:57:50;;;;;;;5.18;2.12;;;;;;;25.54;35.55;98613.91;4474554;31;20117;-81
2022/06/13 04:00:21;;;;;;;5.00;2.08;;;;;;;25.68;36.99;98615.78;4490983;31;20088;-81
2022/06/13 04:02:46;;;;;;;4.80;1.90;;;;;;;25.77;37.25;98605.72;4485031;32;20097;-81
2022/06/13 04:05:23;;;;;;;4.75;1.98;;;;;;;25.88;37.46;98613.34;4484995;32;20147;-80
2022/06/13 04:07:49;;;;;;;7.95;1.98;;;;;;;25.97;37.88;98608.75;4486102;31;20099;-81
2022/06/13 04:10:16;;;;;;;5.47;1.90;;;;;;;25.88;36.69;98605.25;4486103;31;20104;-81
2022/06/13 04:13:00;;;;;;;9.95;2.47;;;;;;;25.96;36.95;98602.53;4484802;32;20131;-81
2022/06/13 04:15:43;;;;;;;9.95;2.58;;;;;;;26.15;36.38;98605.66;4484799;32;20171;-81
2022/06/13 04:18:36;;;;;;;8.20;2.20;;;;;;;26.20;36.10;98600.53;4485904;31;20088;-81
2022/06/13 04:21:10;;;;;;;7.07;2.10;;;;;;;26.34;36.59;98596.94;4485954;31;20103;-81
2022/06/13 04:23:52;;;;;;;5.75;1.90;;;;;;;26.51;36.14;98605.66;4485903;31;20191;-81
2022/06/13 04:26:32;;;;;;;5.85;2.12;;;;;;;26.70;35.71;98606.13;4484750;32;20156;-80
2022/06/13 04:29:20;;;;;;;6.35;2.20;;;;;;;26.73;36.12;98608.41;4484772;32;20084;-81
2022/06/13 04:31:46;;;;;;;4.57;1.62;;;;;;;26.84;36.30;98614.16;4484556;32;20081;-81
2022/06/13 04:34:18;;;;;;;8.00;2.20;;;;;;;26.95;35.52;98607.41;4471380;32;20104;-81
2022/06/13 04:36:44;;;;;;;5.22;1.90;;;;;;;27.00;34.97;98604.09;4487471;31;20189;-81
2022/06/13 04:39:13;;;;;;;4.75;1.85;;;;;;;27.24;34.70;98619.97;4486846;32;20093;-81
2022/06/13 04:41:41;;;;;;;5.55;2.10;;;;;;;27.51;34.82;98617.47;4486798;32;20106;-81
2022/06/13 04:44:07;;;;;;;4.47;2.17;;;;;;;27.49;35.31;98615.97;4486695;32;20093;-81
2022/06/13 04:46:34;;;;;;;7.07;2.35;;;;;;;27.64;35.39;98614.87;4487976;31;20096;-81
2022/06/13 04:49:05;;;;;;;7.07;1.95;;;;;;;27.77;35.94;98613.28;4487839;31;20100;-81
2022/06/13 04:51:39;;;;;;;6.37;2.10;;;;;;;27.84;36.00;98608.75;4486660;32;20088;-81
2022/06/13 04:54:09;;;;;;;6.10;2.28;;;;;;;27.96;35.23;98612.56;4487902;31;20123;-82
2022/06/13 04:56:34;;;;;;;7.30;2.30;;;;;;;27.99;36.24;98605.91;4487902;31;20093;-81
2022/06/13 04:59:00;;;;;;;5.25;2.10;;;;;;;28.22;35.07;98608.31;4487794;31;20451;-82
2022/06/13 05:01:33;;;;;;;7.07;2.10;;;;;;;28.33;34.14;98601.50;4487893;31;20088;-84
2022/06/13 05:04:00;;;;;;;7.15;2.40;;;;;;;28.39;35.11;98601.50;4486711;32;20463;-83
2022/06/13 05:06:28;;;;;;;;;;;;;;;28.49;35.28;98609.28;4487352;32;20129;-83
2022/06/13 05:08:57;;;;;;;6.00;2.05;;;;;;;28.73;33.76;98612.50;4488447;31;20418;-83
2022/06/13 05:11:27;;;;;;;4.25;2.00;;;;;;;28.71;33.71;98609.16;4462621;31;20127;-84
2022/06/13 05:13:58;;;;;;;6.43;2.20;;;;;;;28.83;33.91;98602.91;4495048;31;20096;-80
2022/06/13 05:16:28;;;;;;;4.62;2.10;;;;;;;28.79;33.52;98600.81;4495508;31;20143;-80
2022/06/13 05:19:00;;;;;;;5.35;2.00;;;;;;;28.93;33.59;98598.97;4486201;31;20127;-80
2022/06/13 05:21:45;;;;;;;5.55;2.20;;;;;;;29.01;31.92;98594.19;4487567;31;20356;-81
2022/06/13 05:24:40;;;;;;;4.57;1.90;;;;;;;29.14;31.86;98604.22;4487690;31;20107;-79
2022/06/13 05:27:08;;;;;;;4.70;2.10;;;;;;;29.20;30.51;98599.84;4490831;31;20171;-79
2022/06/13 05:29:34;;;;;;;5.03;2.00;;;;;;;29.10;30.61;98611.06;4502068;31;20515;-86
2022/06/13 05:32:00;;;;;;;7.28;2.30;;;;;;;29.26;30.83;98601.72;4502056;31;20117;-78
2022/06/13 05:34:32;;;;;;;6.15;2.00;;;;;;;29.34;31.14;98606.09;4501914;31;20141;-80
2022/06/13 05:36:57;;;;;;;5.85;2.50;;;;;;;29.44;30.99;98603.81;4501972;31;20155;-81
2022/06/13 05:39:23;;;;;;;5.00;1.92;;;;;;;29.60;31.29;98597.94;4501887;31;20092;-81
2022/06/13 05:41:48;;;;;;;7.62;2.20;;;;;;;29.64;31.09;98600.25;4501834;31;20455;-82
2022/06/13 05:44:14;;;;;;;6.57;2.37;;;;;;;29.68;31.10;98593.34;4501895;31;20104;-83
2022/06/13 05:46:40;;;;;;;6.53;2.37;;;;;;;29.74;31.48;98603.38;4501490;31;20116;-85
2022/06/13 05:49:05;;;;;;;7.60;2.70;;;;;;;29.84;31.42;98603.75;4487303;31;21189;-82
2022/06/13 05:51:31;;;;;;;7.85;2.50;;;;;;;29.95;30.69;98603.09;4501751;31;20084;-83
2022/06/13 05:54:00;;;;;;;7.00;2.15;;;;;;;29.97;30.47;98597.47;4487213;31;20104;-82
2022/06/13 05:56:26;;;;;;;7.82;2.60;;;;;;;29.97;30.75;98595.56;4487951;31;20119;-82
2022/06/13 05:58:52;;;;;;;12.93;3.75;;;;;;;30.02;30.46;98603.09;4501819;31;20088;-81
2022/06/13 06:01:17;;;;;;;8.25;2.62;;;;;;;30.09;30.94;98594.91;4487336;31;20135;-82
2022/06/13 06:03:45;;;;;;;7.95;2.95;;;;;;;30.14;31.29;98598.66;4501914;31;20123;-80
2022/06/13 06:06:11;;;;;;;;;;;;;;;30.19;31.21;98598.00;4502204;31;20104;-82
2022/06/13 06:08:37;;;;;;;9.38;3.30;;;;;;;30.42;30.15;98604.84;4502204;31;20006;-81
2022/06/13 06:11:03;;;;;;;9.93;3.47;;;;;;;30.37;29.96;98602.78;4501759;31;20132;-81
2022/06/13 06:13:29;;;;;;;9.10;2.67;;;;;;;30.26;30.37;98603.44;4487182;31;20621;-82
2022/06/13 06:15:56;;;;;;;8.05;3.25;;;;;;;30.23;30.61;98609.28;4501355;31;20408;-80
2022/06/13 06:18:22;;;;;;;9.85;2.78;;;;;;;30.24;30.62;98609.06;4501544;31;20435;-82
2022/06/13 06:20:48;;;;;;;7.20;2.85;;;;;;;30.27;30.31;98603.22;4501848;31;20072;-82
2022/06/13 06:23:13;;;;;;;6.57;2.28;;;;;;;30.31;29.71;98598.19;4487232;31;20127;-81
2022/06/13 06:25:39;;;;;;;7.43;2.40;;;;;;;30.41;29.21;98603.19;4487254;31;20087;-81
2022/06/13 06:28:05;;;;;;;5.80;2.47;;;;;;;30.46;29.32;98596.06;4501868;31;20084;-81
2022/06/13 06:30:33;;;;;;;6.53;2.40;;;;;;;30.50;29.25;98605.44;4487215;31;20098;-80
2022/06/13 06:32:59;;;;;;;7.25;2.47;;;;;;;30.65;29.16;98598.87;4487020;31;20096;-80
2022/06/13 06:35:26;;;;;;;6.93;2.28;;;;;;;30.81;29.00;98602.94;4501519;31;20114;-80
2022/06/13 06:37:52;;;;;;;;;;;;;;;30.72;29.37;98605.09;4487231;31;20463;-79
2022/06/13 06:40:22;;;;;;;6.53;2.30;;;;;;;30.83;28.79;98600.84;4501619;31;19983;-81
2022/06/13 06:42:48;;;;;;;8.13;2.20;;;;;;;30.83;28.70;98603.56;4486805;31;20104;-80
2022/06/13 06:45:13;;;;;;;5.68;2.25;;;;;;;30.92;28.13;98597.66;4501397;31;20115;-81
2022/06/13 06:47:39;;;;;;;7.85;2.60;;;;;;;30.82;28.41;98597.28;4488406;31;20100;-81
2022/06/13 06:50:10;;;;;;;11.63;2.30;;;;;;;30.83;27.97;98603.56;4502861;31;20084;-81
2022/06/13 06:52:36;;;;;;;5.40;2.25;;;;;;;30.87;27.75;98602.91;4488047;31;20119;-81
2022/06/13 07:00:29;;;;;;;4.65;1.90;;;;;;;30.93;27.57;98596.63;4502941;31;20446;-83
2022/06/13 07:02:57;;;;;;;6.05;2.15;;;;;;;30.87;28.33;98594.75;4502781;31;20093;-86
2022/06/13 07:05:22;;;;;;;5.80;2.10;;;;;;;30.96;27.78;98585.31;4502665;31;20118;-83
2022/06/13 07:07:48;;;;;;;13.32;2.80;;;;;;;31.00;28.00;98596.56;4502680;31;20083;-83
2022/06/13 07:10:14;;;;;;;6.30;2.30;;;;;;;31.02;27.90;98599.88;4502782;31;20106;-83
2022/06/13 07:12:39;;;;;;;5.60;2.20;;;;;;;31.06;28.04;98600.28;4502502;31;20152;-83
2022/06/13 07:15:05;;;;;;;7.07;2.10;;;;;;;31.16;27.77;98598.75;4488317;31;20511;-82
2022/06/13 07:17:31;;;;;;;5.43;2.00;;;;;;;31.17;26.56;98605.84;4502452;31;20113;-83
2022/06/13 07:19:56;;;;;;;14.38;2.40;;;;;;;31.16;26.56;98595.22;4502576;31;20411;-83
2022/06/13 07:22:23;;;;;;;5.22;1.90;;;;;;;31.27;26.65;98594.47;4502518;31;20156;-83
2022/06/13 07:24:49;;;;;;;8.88;2.15;;;;;;;31.27;26.47;98593.63;4490463;31;20160;-83
2022/06/13 07:27:16;;;;;;;7.45;2.00;;;;;;;31.31;25.68;98594.84;4470038;32;20463;-84
2022/06/13 07:29:42;;;;;;;8.50;2.28;;;;;;;31.46;25.69;98592.66;4484390;32;20096;-84
2022/06/13 07:32:14;;;;;;;7.55;2.10;;;;;;;31.46;25.59;98594.53;4471154;32;20144;-84
2022/06/13 07:34:42;;;;;;;5.95;2.00;;;;;;;31.62;25.18;98593.97;4459057;32;20161;-84
2022/06/13 07:37:11;;;;;;;7.32;2.20;;;;;;;31.64;25.10;98586.41;4472332;32;20089;-83
2022/06/13 07:39:37;;;;;;;6.70;2.28;;;;;;;31.71;25.26;98589.06;4472307;32;20106;-84
2022/06/13 07:42:03;;;;;;;6.65;2.72;;;;;;;31.71;25.66;98589.06;4486538;32;20097;-84
2022/06/13 07:44:38;;;;;;;8.90;2.23;;;;;;;31.57;25.63;98593.00;4486604;32;20118;-84
2022/06/13 07:47:07;;;;;;;5.47;1.92;;;;;;;31.70;26.69;98593.69;4472170;32;20072;-84
2022/06/13 07:49:32;;;;;;;7.10;2.40;;;;;;;31.79;25.32;98583.31;4486438;32;20097;-84
2022/06/13 07:51:57;;;;;;;5.97;2.17;;;;;;;31.70;24.67;98601.84;4472061;32;20096;-83
2022/06/13 07:54:23;;;;;;;7.05;2.08;;;;;;;31.77;24.83;98600.94;4486317;32;20153;-84
2022/06/13 07:56:49;;;;;;;8.20;2.15;;;;;;;31.59;25.92;98596.31;4472150;32;20084;-84
2022/06/13 07:59:18;;;;;;;6.32;2.20;;;;;;;31.71;25.82;98594.50;4471963;32;20080;-83
2022/06/13 08:01:44;;;;;;;6.93;2.40;;;;;;;31.77;25.92;98595.50;4472020;32;20104;-83
2022/06/13 08:04:10;;;;;;;10.50;2.85;;;;;;;31.84;25.31;98588.09;4486234;32;20093;-83
2022/06/13 08:06:38;;;;;;;9.70;2.58;;;;;;;31.72;26.01;98593.47;4486176;32;20111;-83
2022/06/13 08:09:04;;;;;;;7.70;2.35;;;;;;;31.70;25.94;98585.50;4486073;32;20085;-84
2022/06/13 08:11:36;;;;;;;6.60;2.40;;;;;;;31.77;25.88;98579.16;4473211;32;20108;-84
2022/06/13 08:14:02;;;;;;;8.48;2.40;;;;;;;31.78;25.34;98567.22;4473966;32;20114;-84
2022/06/13 08:16:27;;;;;;;12.18;3.47;;;;;;;31.78;25.64;98568.03;4487900;32;20073;-83
2022/06/13 08:18:53;;;;;;;27.67;4.10;;;;;;;31.71;26.82;98575.44;4488158;32;20404;-83
2022/06/13 08:21:19;;;;;;;8.98;2.22;;;;;;;31.78;26.71;98576.22;4488148;32;20088;-83
2022/06/13 08:23:45;;;;;;;7.15;2.22;;;;;;;31.90;25.85;98581.72;4488037;32;20096;-84
2022/06/13 08:26:12;;;;;;;5.10;2.00;;;;;;;31.85;25.93;98574.25;4473747;32;20116;-83
2022/06/13 08:28:37;;;;;;;5.07;1.77;;;;;;;31.85;25.11;98574.25;4473754;32;20417;-84
2022/06/13 08:31:10;;;;;;;10.48;2.60;;;;;;;31.70;24.54;98571.91;4487935;32;20169;-83
2022/06/13 08:33:35;;;;;;;7.03;2.47;;;;;;;31.66;25.50;98567.09;4473861;32;20112;-84
2022/06/13 08:36:01;;;;;;;6.03;2.15;;;;;;;31.66;25.32;98570.69;4488170;32;20103;-84
2022/06/13 08:38:27;;;;;;;5.75;2.37;;;;;;;31.53;25.29;98573.53;4488166;32;20124;-83
2022/06/13 08:41:06;;;;;;;6.25;2.58;;;;;;;31.26;25.62;98576.47;4487907;32;20088;-83
2022/06/13 08:44:02;;;;;;;5.85;2.17;;;;;;;31.29;25.36;98573.31;4487992;32;20118;-83
2022/06/13 08:46:47;;;;;;;23.23;5.62;;;;;;;31.01;26.01;98568.31;4473718;32;20080;-83
2022/06/13 08:49:26;;;;;;;8.13;2.37;;;;;;;31.11;26.64;98573.25;4487899;32;20111;-84
2022/06/13 08:52:20;;;;;;;11.82;3.03;;;;;;;31.21;26.16;98565.41;4473530;32;20088;-83
2022/06/13 08:54:52;;;;;;;15.93;4.10;;;;;;;31.37;26.64;98569.47;4487977;32;20165;-83
2022/06/13 08:57:18;;;;;;;8.85;2.47;;;;;;;31.30;27.05;98571.44;4487761;32;20088;-84
2022/06/13 08:59:55;;;;;;;7.20;2.33;;;;;;;31.42;26.51;98566.91;4473550;32;20107;-83
2022/06/13 09:02:46;;;;;;;7.18;2.37;;;;;;;31.59;26.46;98567.19;4473781;32;20097;-83
2022/06/13 09:05:27;;;;;;;7.55;2.62;;;;;;;31.57;26.81;98573.94;4487867;32;20459;-84
2022/06/13 09:07:54;;;;;;;9.13;2.53;;;;;;;31.64;25.38;98559.19;4487798;32;20084;-84
2022/06/13 09:10:27;;;;;;;5.40;2.10;;;;;;;31.50;25.66;98563.09;4473427;32;20081;-83
2022/06/13 09:13:06;;;;;;;5.82;2.33;;;;;;;31.49;25.54;98567.72;4487820;32;20149;-83
2022/06/13 09:15:38;;;;;;;8.25;2.42;;;;;;;31.49;25.96;98562.25;4473633;32;20115;-84
2022/06/13 09:18:24;;;;;;;6.05;2.33;;;;;;;31.60;26.66;98557.12;4473706;32;20088;-84
2022/06/13 09:21:14;;;;;;;11.15;3.10;;;;;;;31.77;26.89;98547.28;4473798;32;20111;-83
2022/06/13 09:23:44;;;;;;;9.73;2.78;;;;;;;31.58;27.46;98549.19;4486913;32;20452;-84
2022/06/13 09:26:56;;;;;;;6.50;2.10;;;;;;;31.67;26.81;98544.28;4487740;32;20092;-83
2022/06/13 09:29:29;;;;;;;6.20;2.53;;;;;;;31.84;26.06;98537.16;4395255;32;20105;-84
2022/06/13 09:32:02;;;;;;;5.35;2.30;;;;;;;31.66;25.43;98539.88;4407981;32;20614;-83
2022/06/13 09:34:52;;;;;;;6.07;2.37;;;;;;;31.31;25.63;98545.84;4395409;32;20157;-83
2022/06/13 09:37:30;;;;;;;5.78;2.33;;;;;;;31.48;25.48;98540.72;4407331;32;20567;-84
2022/06/13 09:39:56;;;;;;;9.20;2.72;;;;;;;31.57;25.29;98531.19;4395368;32;20113;-84
2022/06/13 09:42:53;;;;;;;8.50;2.60;;;;;;;31.63;26.14;98524.84;4407856;32;20110;-83
2022/06/13 09:45:37;;;;;;;10.27;2.85;;;;;;;31.57;25.87;98527.66;4395252;32;20102;-83
2022/06/13 09:48:02;;;;;;;7.43;2.50;;;;;;;31.51;26.12;98522.03;4407885;32;20162;-83
2022/06/13 09:50:37;;;;;;;6.90;2.60;;;;;;;31.47;25.77;98526.28;4407888;32;20359;-84
2022/06/13 09:53:34;;;;;;;6.45;2.33;;;;;;;31.28;25.69;98522.66;4407840;32;20086;-84
2022/06/13 09:56:10;;;;;;;5.45;2.30;;;;;;;31.43;26.38;98518.72;4395537;32;20525;-84
2022/06/13 09:58:54;;;;;;;4.97;1.95;;;;;;;31.33;25.91;98511.94;4395342;32;20405;-83
2022/06/13 10:01:58;;;;;;;6.10;2.30;;;;;;;30.95;24.19;98518.34;4487772;32;20098;-83
2022/06/13 10:04:41;;;;;;;4.93;2.40;;;;;;;30.96;25.09;98513.72;4407723;32;20085;-84
2022/06/13 10:07:15;;;;;;;7.50;2.50;;;;;;;31.03;25.87;98500.09;4407894;32;20106;-83
2022/06/13 10:10:03;;;;;;;7.05;2.65;;;;;;;31.08;25.49;98497.50;4407817;32;20122;-84
2022/06/13 10:12:47;;;;;;;7.70;2.67;;;;;;;31.08;25.75;98502.94;4395137;32;20454;-83
2022/06/13 10:15:41;;;;;;;8.35;2.75;;;;;;;30.92;25.95;98499.75;4407803;32;20089;-83
2022/06/13 10:18:17;;;;;;;6.60;2.83;;;;;;;30.75;26.91;98495.88;4407786;32;20508;-83
2022/06/13 10:20:54;;;;;;;7.07;2.72;;;;;;;30.88;26.54;98494.94;4394998;32;20094;-83
2022/06/13 10:23:39;;;;;;;8.27;3.03;;;;;;;30.72;26.85;98494.44;4395036;32;20078;-83
2022/06/13 10:26:53;;;;;;;6.75;2.50;;;;;;;30.97;27.12;98496.38;4407654;32;20121;-84
2022/06/13 10:29:32;;;;;;;7.45;2.60;;;;;;;31.14;26.92;98486.56;4347632;33;20122;-83
2022/06/13 10:32:22;;;;;;;7.47;2.67;;;;;;;31.30;26.31;98482.44;4347612;33;20199;-84
2022/06/13 10:35:02;;;;;;;7.12;2.75;;;;;;;31.38;26.45;98470.41;4347107;33;20091;-83
2022/06/13 10:37:37;;;;;;;11.45;3.08;;;;;;;31.46;26.93;98475.59;4347730;33;20099;-83
2022/06/13 10:40:04;;;;;;;9.35;3.00;;;;;;;31.69;26.39;98476.81;4380380;32;20168;-83
2022/06/13 10:42:32;;;;;;;5.47;2.40;;;;;;;32.00;26.38;98466.78;4394939;32;20102;-83
2022/06/13 10:44:57;;;;;;;12.75;2.92;;;;;;;32.07;26.08;98468.37;4394872;32;20078;-84
2022/06/13 10:47:25;;;;;;;10.10;2.92;;;;;;;32.14;26.10;98476.44;4407403;32;20136;-84
2022/06/13 10:50:10;;;;;;;;;;;;;;;32.39;24.47;98453.66;4395118;32;20090;-83
2022/06/13 10:52:43;;;;;;;8.00;2.47;;;;;;;32.50;25.50;98469.22;4407439;32;20367;-83
2022/06/13 10:55:10;;;;;;;6.45;2.50;;;;;;;32.37;25.63;98453.87;4395349;32;20496;-83
2022/06/13 10:57:45;;;;;;;10.38;3.33;;;;;;;32.63;26.43;98452.69;4395013;32;20121;-84
2022/06/13 11:00:13;;;;;;;6.25;2.60;;;;;;;32.63;25.75;98454.56;4407394;32;20148;-83
2022/06/13 11:02:39;;;;;;;6.87;2.70;;;;;;;32.16;25.69;98448.97;4407394;32;20106;-84
2022/06/13 11:05:09;;;;;;;7.03;2.40;;;;;;;32.38;25.60;98443.84;4425806;32;20106;-83
2022/06/13 11:07:43;;;;;;;7.47;2.37;;;;;;;32.36;25.25;98435.88;4486980;32;20072;-84
2022/06/13 11:10:20;;;;;;;7.18;2.80;;;;;;;32.47;25.25;98436.94;4472703;32;20134;-84
2022/06/13 11:12:49;;;;;;;6.27;2.87;;;;;;;32.52;25.03;98434.34;4486718;32;20131;-83
2022/06/13 11:23:36;;;;;;;16.47;3.17;;;;;;;33.10;24.88;98414.50;4474842;32;20167;-84
2022/06/13 11:26:03;;;;;;;10.07;3.00;;;;;;;33.19;24.61;98404.06;4486937;32;20627;-84
2022/06/13 11:28:37;;;;;;;6.85;2.80;;;;;;;33.60;24.38;98406.81;4486929;32;20104;-84
2022/06/13 11:31:12;;;;;;;6.30;2.70;;;;;;;33.79;24.15;98413.78;4486941;32;20128;-84
2022/06/13 11:33:40;;;;;;;6.82;2.70;;;;;;;33.41;24.37;98411.59;4472604;32;20092;-84
2022/06/13 11:36:11;;;;;;;5.95;2.80;;;;;;;33.59;23.51;98394.22;4486650;32;20437;-84
2022/06/13 11:38:49;;;;;;;5.68;2.60;;;;;;;33.64;24.17;98408.00;4486643;32;20447;-84
2022/06/13 11:41:18;;;;;;;6.28;2.75;;;;;;;33.57;24.37;98402.66;4486529;32;20131;-83
2022/06/13 11:43:59;;;;;;;7.65;3.17;;;;;;;33.72;24.16;98410.34;4486588;32;20162;-83
2022/06/13 11:46:27;;;;;;;7.45;2.97;;;;;;;33.70;25.19;98407.03;4485280;32;20084;-83
2022/06/13 11:48:54;;;;;;;6.50;2.75;;;;;;;33.51;25.96;98398.16;4486395;32;20084;-83
2022/06/13 11:51:24;;;;;;;;;;;;;;;33.52;26.04;98409.94;4472504;32;20127;-83
2022/06/13 11:53:51;;;;;;;12.55;3.30;;;;;;;33.60;26.26;98398.63;4486387;32;20602;-84
2022/06/13 11:56:23;;;;;;;9.40;3.40;;;;;;;33.59;26.41;98402.41;4486212;32;20106;-83
2022/06/13 11:58:50;;;;;;;7.97;3.35;;;;;;;33.32;26.21;98397.50;4472178;32;20084;-83
2022/06/13 12:01:32;;;;;;;8.50;3.30;;;;;;;33.28;26.32;98401.78;4472195;32;20099;-83
2022/06/13 12:04:02;;;;;;;9.00;3.42;;;;;;;33.34;26.01;98402.72;4486256;32;20089;-84
2022/06/13 12:06:43;;;;;;;9.13;3.45;;;;;;;33.57;25.84;98396.34;4471965;32;20424;-83
2022/06/13 12:09:47;;;;;;;7.47;2.90;;;;;;;33.40;26.08;98388.94;4486202;32;20068;-84
2022/06/13 12:12:12;;;;;;;7.82;3.03;;;;;;;33.53;26.04;98381.53;4472216;32;20398;-83
2022/06/13 12:14:40;;;;;;;9.13;3.15;;;;;;;33.41;25.55;98389.75;4472108;32;20123;-83
2022/06/13 12:17:15;;;;;;;61.80;8.45;;;;;;;33.12;25.64;98384.25;4471832;32;20080;-83
2022/06/13 12:19:57;;;;;;;11.02;3.47;;;;;;;33.12;26.38;98370.59;4486158;32;20431;-83